createdAt,value
2023-03-17T00:00:59.405Z,0.00
2023-03-17T00:01:59.453Z,0.00
2023-03-17T00:02:59.386Z,0.00
2023-03-17T00:03:59.444Z,0.00
2023-03-17T00:04:59.360Z,0.00
2023-03-17T00:05:59.400Z,0.00
2023-03-17T00:06:59.359Z,0.00
2023-03-17T00:07:59.350Z,0.00
2023-03-17T00:08:59.319Z,0.00
2023-03-17T00:09:59.323Z,0.00
2023-03-17T00:10:59.311Z,0.00
2023-03-17T00:11:59.324Z,0.00
2023-03-17T00:12:59.275Z,0.00
2023-03-17T00:13:59.277Z,0.00
2023-03-17T00:14:59.269Z,0.00
2023-03-17T00:15:59.321Z,0.00
2023-03-17T00:16:59.249Z,0.00
2023-03-17T00:17:59.231Z,0.00
2023-03-17T00:18:59.232Z,0.00
2023-03-17T00:19:59.199Z,0.00
2023-03-17T00:20:59.236Z,0.00
2023-03-17T00:21:59.195Z,0.00
2023-03-17T00:22:59.184Z,0.00
2023-03-17T00:23:59.172Z,0.00
2023-03-17T00:24:59.159Z,0.00
2023-03-17T00:25:59.137Z,0.00
2023-03-17T00:26:59.170Z,0.00
2023-03-17T00:27:59.143Z,0.00
2023-03-17T00:28:59.185Z,0.00
2023-03-17T00:29:59.090Z,0.00
2023-03-17T00:30:59.247Z,0.00
2023-03-17T00:31:59.077Z,0.00
2023-03-17T00:32:59.137Z,0.00
2023-03-17T00:33:59.048Z,0.00
2023-03-17T00:34:59.069Z,0.00
2023-03-17T00:35:59.083Z,0.00
2023-03-17T00:36:59.029Z,0.00
2023-03-17T00:37:59.003Z,0.00
2023-03-17T00:38:59.010Z,0.00
2023-03-17T00:39:58.984Z,0.00
2023-03-17T00:40:59.020Z,0.00
2023-03-17T00:41:58.964Z,0.00
2023-03-17T00:42:58.970Z,0.00
2023-03-17T00:43:58.943Z,0.00
2023-03-17T00:44:58.953Z,0.00
2023-03-17T00:45:58.966Z,0.00
2023-03-17T00:46:58.994Z,0.00
2023-03-17T00:47:58.921Z,0.00
2023-03-17T00:48:58.908Z,0.00
2023-03-17T00:49:58.888Z,0.00
2023-03-17T00:50:58.883Z,0.00
2023-03-17T00:51:58.866Z,0.00
2023-03-17T00:52:58.898Z,0.00
2023-03-17T00:53:58.914Z,0.00
2023-03-17T00:54:58.828Z,0.00
2023-03-17T00:55:58.823Z,0.00
2023-03-17T00:56:58.816Z,0.00
2023-03-17T00:57:58.796Z,0.00
2023-03-17T00:58:58.802Z,0.00
2023-03-17T00:59:58.767Z,0.00
2023-03-17T01:00:58.837Z,0.00
2023-03-17T01:01:58.799Z,0.00
2023-03-17T01:02:58.758Z,0.00
2023-03-17T01:03:58.744Z,0.00
2023-03-17T01:05:05.768Z,0.00
2023-03-17T01:05:58.698Z,0.00
2023-03-17T01:06:58.709Z,0.00
2023-03-17T01:07:58.681Z,0.00
2023-03-17T01:08:58.698Z,0.00
2023-03-17T01:09:58.664Z,0.00
2023-03-17T01:10:58.664Z,0.00
2023-03-17T01:11:58.632Z,0.00
2023-03-17T01:12:58.660Z,0.00
2023-03-17T01:13:58.637Z,0.00
2023-03-17T01:14:58.610Z,0.00
2023-03-17T01:15:58.650Z,0.00
2023-03-17T01:16:58.600Z,0.00
2023-03-17T01:17:58.575Z,0.00
2023-03-17T01:18:58.627Z,0.00
2023-03-17T01:19:58.578Z,0.00
2023-03-17T01:20:58.564Z,0.00
2023-03-17T01:21:58.537Z,0.00
2023-03-17T01:22:58.546Z,0.00
2023-03-17T01:23:58.497Z,0.00
2023-03-17T01:24:58.524Z,0.00
2023-03-17T01:25:58.486Z,0.00
2023-03-17T01:26:58.487Z,0.00
2023-03-17T01:27:58.469Z,0.00
2023-03-17T01:28:58.482Z,0.00
2023-03-17T01:29:58.444Z,0.00
2023-03-17T01:30:58.485Z,0.00
2023-03-17T01:31:58.476Z,0.00
2023-03-17T01:32:58.486Z,0.00
2023-03-17T01:33:58.392Z,0.00
2023-03-17T01:34:58.425Z,0.00
2023-03-17T01:35:58.490Z,0.00
2023-03-17T01:36:58.368Z,0.00
2023-03-17T01:37:58.351Z,0.00
2023-03-17T01:38:58.369Z,0.00
2023-03-17T01:39:58.338Z,0.00
2023-03-17T01:40:58.341Z,0.00
2023-03-17T01:41:58.324Z,0.00
2023-03-17T01:42:58.335Z,0.00
2023-03-17T01:43:58.292Z,0.00
2023-03-17T01:44:58.315Z,0.00
2023-03-17T01:45:58.305Z,0.00
2023-03-17T01:46:58.277Z,0.00
2023-03-17T01:47:58.249Z,0.00
2023-03-17T01:48:58.260Z,0.00
2023-03-17T01:49:58.222Z,0.00
2023-03-17T01:50:58.272Z,0.00
2023-03-17T01:51:58.233Z,0.00
2023-03-17T01:52:58.214Z,0.00
2023-03-17T01:53:58.196Z,0.00
2023-03-17T01:54:58.190Z,0.00
2023-03-17T01:55:58.165Z,0.00
2023-03-17T01:56:58.185Z,0.00
2023-03-17T01:57:58.144Z,0.00
2023-03-17T01:58:58.159Z,0.00
2023-03-17T01:59:58.120Z,0.00
2023-03-17T02:00:58.156Z,0.00
2023-03-17T02:01:58.107Z,0.00
2023-03-17T02:02:58.127Z,0.00
2023-03-17T02:03:58.110Z,0.00
2023-03-17T02:04:58.084Z,0.00
2023-03-17T02:05:58.120Z,0.00
2023-03-17T02:06:58.899Z,0.00
2023-03-17T02:07:58.053Z,0.00
2023-03-17T02:08:58.039Z,0.00
2023-03-17T02:09:58.012Z,0.00
2023-03-17T02:10:58.029Z,0.00
2023-03-17T02:11:58.002Z,0.00
2023-03-17T02:12:57.994Z,0.00
2023-03-17T02:13:58.012Z,0.00
2023-03-17T02:14:57.974Z,0.00
2023-03-17T02:15:57.946Z,0.00
2023-03-17T02:16:57.980Z,0.00
2023-03-17T02:17:57.925Z,0.00
2023-03-17T02:18:57.944Z,0.00
2023-03-17T02:19:57.912Z,0.00
2023-03-17T02:20:57.916Z,0.00
2023-03-17T02:21:57.912Z,0.00
2023-03-17T02:22:57.878Z,0.00
2023-03-17T02:23:57.860Z,0.00
2023-03-17T02:24:57.883Z,0.00
2023-03-17T02:25:57.838Z,0.00
2023-03-17T02:26:57.841Z,0.00
2023-03-17T02:27:57.815Z,0.00
2023-03-17T02:28:57.822Z,0.00
2023-03-17T02:29:57.806Z,0.00
2023-03-17T07:00:56.294Z,388.00
2023-03-17T07:01:57.256Z,390.00
2023-03-17T07:02:57.195Z,396.00
2023-03-17T07:03:57.160Z,403.00
2023-03-17T07:04:57.228Z,406.00
2023-03-17T07:05:57.185Z,414.00
2023-03-17T07:06:57.166Z,423.00
2023-03-17T07:07:57.127Z,434.00
2023-03-17T07:08:57.126Z,444.00
2023-03-17T07:09:57.114Z,457.00
2023-03-17T07:10:57.103Z,470.00
2023-03-17T07:11:57.110Z,478.00
2023-03-17T07:12:57.089Z,486.00
2023-03-17T07:13:57.062Z,486.00
2023-03-17T07:14:57.076Z,484.00
2023-03-17T07:16:00.341Z,483.00
2023-03-17T07:16:57.059Z,479.00
2023-03-17T07:17:57.008Z,478.00
2023-03-17T07:18:57.027Z,483.00
2023-03-17T07:19:56.998Z,489.00
2023-03-17T07:20:57.028Z,495.00
2023-03-17T07:21:56.971Z,505.00
2023-03-17T07:22:56.977Z,516.00
2023-03-17T07:23:56.961Z,521.00
2023-03-17T07:24:56.971Z,531.00
2023-03-17T07:25:56.928Z,530.00
2023-03-17T07:26:56.976Z,529.00
2023-03-17T07:27:56.919Z,522.00
2023-03-17T07:28:56.938Z,529.00
2023-03-17T07:29:56.949Z,541.00
2023-03-17T07:30:56.905Z,538.00
2023-03-17T07:31:56.876Z,533.00
2023-03-17T07:32:56.935Z,530.00
2023-03-17T07:33:57.398Z,523.00
2023-03-17T07:34:56.868Z,520.00
2023-03-17T07:35:56.924Z,523.00
2023-03-17T07:36:56.845Z,516.00
2023-03-17T07:37:56.819Z,506.00
2023-03-17T07:38:56.826Z,500.00
2023-03-17T07:39:56.800Z,490.00
2023-03-17T07:40:56.842Z,491.00
2023-03-17T07:41:56.777Z,504.00
2023-03-17T07:42:56.777Z,513.00
2023-03-17T07:43:56.773Z,523.00
2023-03-17T07:44:56.751Z,529.00
2023-03-17T07:45:56.720Z,540.00
2023-03-17T07:46:56.744Z,555.00
2023-03-17T07:47:56.701Z,572.00
2023-03-17T07:48:56.737Z,582.00
2023-03-17T07:49:56.663Z,592.00
2023-03-17T07:50:56.668Z,602.00
2023-03-17T07:51:56.684Z,601.00
2023-03-17T07:52:56.676Z,600.00
2023-03-17T07:53:56.645Z,609.00
2023-03-17T07:54:56.675Z,619.00
2023-03-17T07:55:56.632Z,622.00
2023-03-17T07:56:56.645Z,632.00
2023-03-17T07:57:56.606Z,650.00
2023-03-17T07:58:56.588Z,663.00
2023-03-17T07:59:56.595Z,662.00
2023-03-17T08:00:56.593Z,671.00
2023-03-17T08:01:56.549Z,667.00
2023-03-17T08:03:09.259Z,670.00
2023-03-17T08:03:56.758Z,684.00
2023-03-17T08:04:56.518Z,695.00
2023-03-17T08:05:56.529Z,711.00
2023-03-17T08:06:56.502Z,723.00
2023-03-17T08:07:56.475Z,727.00
2023-03-17T08:08:56.542Z,739.00
2023-03-17T08:09:56.449Z,751.00
2023-03-17T08:10:56.482Z,744.00
2023-03-17T08:11:56.434Z,724.00
2023-03-17T08:12:56.475Z,714.00
2023-03-17T08:13:56.408Z,703.00
2023-03-17T08:14:56.442Z,699.00
2023-03-17T08:15:56.413Z,699.00
2023-03-17T08:16:56.501Z,696.00
2023-03-17T08:17:56.375Z,697.00
2023-03-17T08:18:56.366Z,700.00
2023-03-17T08:19:56.353Z,704.00
2023-03-17T08:20:56.375Z,711.00
2023-03-17T08:21:56.331Z,711.00
2023-03-17T08:22:56.511Z,707.00
2023-03-17T08:23:56.333Z,703.00
2023-03-17T08:24:56.351Z,708.00
2023-03-17T08:25:56.326Z,718.00
2023-03-17T08:26:56.935Z,723.00
2023-03-17T08:27:56.288Z,741.00
2023-03-17T08:28:56.263Z,759.00
2023-03-17T08:29:56.269Z,775.00
2023-03-17T08:30:56.317Z,784.00
2023-03-17T08:31:56.315Z,784.00
2023-03-17T08:32:56.243Z,784.00
2023-03-17T08:33:56.246Z,787.00
2023-03-17T08:34:56.204Z,790.00
2023-03-17T08:35:56.227Z,793.00
2023-03-17T08:36:56.165Z,797.00
2023-03-17T08:37:56.338Z,806.00
2023-03-17T08:38:56.197Z,817.00
2023-03-17T08:39:56.159Z,835.00
2023-03-17T08:40:56.127Z,854.00
2023-03-17T08:41:56.122Z,867.00
2023-03-17T08:42:56.153Z,875.00
2023-03-17T08:43:56.175Z,886.00
2023-03-17T08:44:56.135Z,897.00
2023-03-17T08:45:56.111Z,904.00
2023-03-17T08:46:56.062Z,924.00
2023-03-17T08:47:56.114Z,940.00
2023-03-17T08:48:56.058Z,969.00
2023-03-17T08:49:56.078Z,991.00
2023-03-17T08:50:56.207Z,1027.00
2023-03-17T08:51:56.042Z,1063.00
2023-03-17T08:52:56.002Z,1096.00
2023-03-17T08:53:56.020Z,1136.00
2023-03-17T08:54:56.004Z,1182.00
2023-03-17T08:55:56.265Z,1236.00
2023-03-17T08:56:55.954Z,1286.00
2023-03-17T08:57:55.968Z,1324.00
2023-03-17T08:58:55.970Z,1351.00
2023-03-17T08:59:55.973Z,1338.00
2023-03-17T09:00:56.036Z,1435.00
2023-03-17T09:01:56.064Z,1554.00
2023-03-17T09:02:55.947Z,1649.00
2023-03-17T09:03:55.912Z,1763.00
2023-03-17T09:04:55.858Z,1798.00
2023-03-17T09:05:55.885Z,1842.00
2023-03-17T09:07:03.241Z,1886.00
2023-03-17T09:07:55.927Z,1956.00
2023-03-17T09:08:55.826Z,1987.00
2023-03-17T09:09:55.831Z,2063.00
2023-03-17T09:10:55.797Z,2114.00
2023-03-17T09:11:55.815Z,2171.00
2023-03-17T09:12:55.807Z,2211.00
2023-03-17T09:13:55.820Z,2258.00
2023-03-17T09:14:55.787Z,2244.00
2023-03-17T09:15:55.799Z,2265.00
2023-03-17T09:16:55.741Z,2285.00
2023-03-17T09:17:55.779Z,2294.00
2023-03-17T09:18:55.760Z,2295.00
2023-03-17T09:19:55.762Z,2302.00
2023-03-17T09:20:55.702Z,2282.00
2023-03-17T09:21:55.703Z,2272.00
2023-03-17T09:22:55.680Z,2267.00
2023-03-17T09:23:55.681Z,2293.00
2023-03-17T09:24:55.774Z,2314.00
2023-03-17T09:25:55.657Z,2314.00
2023-03-17T09:26:55.676Z,2348.00
2023-03-17T09:27:56.658Z,2351.00
2023-03-17T09:28:55.605Z,2365.00
2023-03-17T09:29:55.740Z,2383.00
2023-03-17T09:30:56.897Z,2380.00
2023-03-17T09:31:55.597Z,2370.00
2023-03-17T09:32:55.643Z,2362.00
2023-03-17T09:33:55.570Z,2348.00
2023-03-17T09:34:55.569Z,2339.00
2023-03-17T09:35:55.565Z,2353.00
2023-03-17T09:36:55.597Z,2353.00
2023-03-17T09:37:55.538Z,2374.00
2023-03-17T09:38:55.501Z,2403.00
2023-03-17T09:39:55.520Z,2409.00
2023-03-17T09:40:55.488Z,2438.00
2023-03-17T09:41:55.553Z,2450.00
2023-03-17T09:42:55.492Z,2465.00
2023-03-17T09:43:55.459Z,2472.00
2023-03-17T09:44:55.450Z,2516.00
2023-03-17T09:45:55.446Z,2583.00
2023-03-17T09:46:55.577Z,2614.00
2023-03-17T09:47:55.470Z,2591.00
2023-03-17T09:48:55.435Z,2595.00
2023-03-17T09:49:55.422Z,2595.00
2023-03-17T09:50:55.389Z,2589.00
2023-03-17T09:51:55.368Z,2603.00
2023-03-17T09:52:55.381Z,2603.00
2023-03-17T09:53:55.355Z,2591.00
2023-03-17T09:54:55.339Z,2568.00
2023-03-17T09:55:55.325Z,2520.00
2023-03-17T09:56:55.358Z,2488.00
2023-03-17T09:57:55.313Z,2499.00
2023-03-17T09:58:55.279Z,2496.00
2023-03-17T09:59:55.314Z,2505.00
2023-03-17T10:00:55.264Z,2495.00
2023-03-17T10:01:55.307Z,2497.00
2023-03-17T10:02:55.236Z,2456.00
2023-03-17T10:03:55.244Z,2434.00
2023-03-17T10:04:55.301Z,2406.00
2023-03-17T10:05:55.242Z,2414.00
2023-03-17T10:06:55.234Z,2419.00
2023-03-17T10:07:55.201Z,2419.00
2023-03-17T10:08:55.190Z,2424.00
2023-03-17T10:09:55.178Z,2400.00
2023-03-17T10:10:55.172Z,2389.00
2023-03-17T10:11:55.167Z,2374.00
2023-03-17T10:12:55.158Z,2368.00
2023-03-17T10:13:55.128Z,2373.00
2023-03-17T10:14:55.111Z,2387.00
2023-03-17T10:15:55.164Z,2397.00
2023-03-17T10:16:55.101Z,2390.00
2023-03-17T10:17:55.112Z,2387.00
2023-03-17T10:18:55.066Z,2365.00
2023-03-17T10:19:55.091Z,2364.00
2023-03-17T10:20:55.047Z,2381.00
2023-03-17T10:21:55.053Z,2421.00
2023-03-17T10:22:55.024Z,2478.00
2023-03-17T10:23:55.054Z,2474.00
2023-03-17T10:24:55.005Z,2528.00
2023-03-17T10:25:55.029Z,2558.00
2023-03-17T10:26:55.871Z,2567.00
2023-03-17T10:27:55.000Z,2555.00
2023-03-17T10:28:54.973Z,2512.00
2023-03-17T10:29:54.980Z,2476.00
2023-03-17T10:30:54.960Z,2489.00
2023-03-17T10:31:58.123Z,2528.00
2023-03-17T10:32:54.978Z,2534.00
2023-03-17T10:33:54.926Z,2549.00
2023-03-17T10:34:54.892Z,2582.00
2023-03-17T10:35:54.946Z,2583.00
2023-03-17T10:36:54.888Z,2660.00
2023-03-17T10:38:08.021Z,2671.00
2023-03-17T10:38:54.877Z,2726.00
2023-03-17T10:39:54.887Z,2778.00
2023-03-17T10:40:54.838Z,2736.00
2023-03-17T10:41:54.882Z,2740.00
2023-03-17T10:42:54.827Z,2772.00
2023-03-17T10:43:54.834Z,2784.00
2023-03-17T10:44:54.819Z,2821.00
2023-03-17T10:45:54.832Z,2895.00
2023-03-17T10:46:54.868Z,2974.00
2023-03-17T10:47:54.785Z,3057.00
2023-03-17T10:48:54.758Z,3095.00
2023-03-17T10:49:54.755Z,3093.00
2023-03-17T10:50:54.725Z,3113.00
2023-03-17T10:51:54.763Z,3105.00
2023-03-17T10:52:54.719Z,3155.00
2023-03-17T10:53:54.698Z,3129.00
2023-03-17T10:54:54.704Z,3099.00
2023-03-17T10:55:54.718Z,3026.00
2023-03-17T10:56:54.652Z,2979.00
2023-03-17T10:57:54.680Z,3001.00
2023-03-17T10:58:54.660Z,3007.00
2023-03-17T10:59:55.463Z,3015.00
2023-03-17T11:00:54.672Z,3012.00
2023-03-17T11:01:54.612Z,2976.00
2023-03-17T11:02:54.619Z,2943.00
2023-03-17T11:03:54.688Z,2919.00
2023-03-17T11:04:54.562Z,2900.00
2023-03-17T11:05:54.567Z,2901.00
2023-03-17T11:06:54.557Z,2871.00
2023-03-17T11:07:54.577Z,2884.00
2023-03-17T11:08:54.526Z,2904.00
2023-03-17T11:09:54.529Z,2923.00
2023-03-17T11:10:54.508Z,2964.00
2023-03-17T11:11:54.518Z,2965.00
2023-03-17T11:12:54.504Z,2984.00
2023-03-17T11:13:54.497Z,2961.00
2023-03-17T11:14:54.457Z,2937.00
2023-03-17T11:15:54.465Z,2923.00
2023-03-17T11:16:54.469Z,2938.00
2023-03-17T11:17:54.443Z,2916.00
2023-03-17T11:18:54.432Z,2924.00
2023-03-17T11:19:54.469Z,2932.00
2023-03-17T11:20:54.401Z,2954.00
2023-03-17T11:21:54.412Z,2991.00
2023-03-17T11:22:54.381Z,2989.00
2023-03-17T11:23:54.384Z,3013.00
2023-03-17T11:24:54.400Z,2999.00
2023-03-17T11:25:54.371Z,3051.00
2023-03-17T11:26:54.360Z,3060.00
2023-03-17T11:27:54.331Z,3140.00
2023-03-17T11:28:54.316Z,3155.00
2023-03-17T11:29:54.346Z,3181.00
2023-03-17T11:30:54.327Z,3226.00
2023-03-17T11:31:54.375Z,3252.00
2023-03-17T11:32:54.287Z,3334.00
2023-03-17T11:33:54.270Z,3298.00
2023-03-17T11:34:54.253Z,3286.00
2023-03-17T11:35:54.285Z,3245.00
2023-03-17T11:36:56.485Z,3193.00
2023-03-17T11:37:54.231Z,3183.00
2023-03-17T11:38:54.195Z,3163.00
2023-03-17T11:39:54.225Z,3098.00
2023-03-17T11:40:54.182Z,3001.00
2023-03-17T11:41:54.195Z,2996.00
2023-03-17T11:42:55.369Z,2942.00
2023-03-17T11:43:54.216Z,2949.00
2023-03-17T11:44:54.135Z,2959.00
2023-03-17T11:45:54.314Z,2903.00
2023-03-17T11:46:54.164Z,2858.00
2023-03-17T11:47:54.146Z,2842.00
2023-03-17T11:48:54.147Z,2870.00
2023-03-17T11:49:54.106Z,2932.00
2023-03-17T11:50:54.078Z,2992.00
2023-03-17T11:51:54.106Z,3057.00
2023-03-17T11:52:54.074Z,3087.00
2023-03-17T11:53:54.054Z,3098.00
2023-03-17T11:54:55.988Z,3080.00
2023-03-17T11:55:54.027Z,3073.00
2023-03-17T11:56:54.007Z,3078.00
2023-03-17T11:57:54.006Z,3093.00
2023-03-17T11:58:54.019Z,3148.00
2023-03-17T11:59:53.982Z,3161.00
2023-03-17T12:00:53.975Z,3185.00
2023-03-17T12:01:53.974Z,3198.00
2023-03-17T12:02:53.939Z,3211.00
2023-03-17T12:03:54.139Z,3207.00
2023-03-17T12:04:53.949Z,3180.00
2023-03-17T12:05:53.930Z,3137.00
2023-03-17T12:06:55.416Z,3123.00
2023-03-17T12:07:53.887Z,3118.00
2023-03-17T12:08:53.871Z,3167.00
2023-03-17T12:09:53.897Z,3176.00
2023-03-17T12:10:53.842Z,3138.00
2023-03-17T12:11:53.861Z,3148.00
2023-03-17T12:12:53.837Z,3143.00
2023-03-17T12:13:53.834Z,3134.00
2023-03-17T12:14:53.805Z,3112.00
2023-03-17T12:15:53.863Z,3073.00
2023-03-17T12:16:53.822Z,3014.00
2023-03-17T12:17:53.779Z,2901.00
2023-03-17T12:18:53.793Z,2832.00
2023-03-17T12:19:53.759Z,2781.00
2023-03-17T12:20:53.754Z,2784.00
2023-03-17T12:21:53.763Z,2801.00
2023-03-17T12:22:55.805Z,2744.00
2023-03-17T12:23:53.726Z,2673.00
2023-03-17T12:24:53.713Z,2580.00
2023-03-17T12:25:53.706Z,2585.00
2023-03-17T12:26:53.745Z,2621.00
2023-03-17T12:27:53.710Z,2617.00
2023-03-17T12:28:55.194Z,2639.00
2023-03-17T12:29:53.672Z,2644.00
2023-03-17T12:30:53.663Z,2644.00
2023-03-17T12:31:53.631Z,2628.00
2023-03-17T12:32:53.738Z,2672.00
2023-03-17T12:33:53.658Z,2698.00
2023-03-17T12:34:55.012Z,2704.00
2023-03-17T12:35:53.612Z,2713.00
2023-03-17T12:36:53.652Z,2693.00
2023-03-17T12:37:53.568Z,2697.00
2023-03-17T12:38:53.550Z,2693.00
2023-03-17T12:39:53.545Z,2693.00
2023-03-17T12:40:53.529Z,2728.00
2023-03-17T12:41:53.559Z,2746.00
2023-03-17T12:42:53.495Z,2705.00
2023-03-17T12:43:53.510Z,2697.00
2023-03-17T12:44:53.483Z,2705.00
2023-03-17T12:45:54.358Z,2678.00
2023-03-17T12:46:53.526Z,2618.00
2023-03-17T12:47:53.438Z,2587.00
2023-03-17T12:48:53.461Z,2618.00
2023-03-17T12:49:53.418Z,2630.00
2023-03-17T12:50:53.434Z,2632.00
2023-03-17T12:51:53.407Z,2615.00
2023-03-17T12:52:53.522Z,2625.00
2023-03-17T12:53:53.373Z,2604.00
2023-03-17T12:54:53.380Z,2619.00
2023-03-17T12:55:53.347Z,2657.00
2023-03-17T12:56:54.063Z,2688.00
2023-03-17T12:57:53.337Z,2685.00
2023-03-17T12:58:53.396Z,2695.00
2023-03-17T12:59:53.309Z,2735.00
2023-03-17T13:00:53.322Z,2819.00
2023-03-17T13:01:53.334Z,2903.00
2023-03-17T13:02:53.339Z,2918.00
2023-03-17T13:03:53.263Z,2877.00
2023-03-17T13:04:53.298Z,2809.00
2023-03-17T13:05:53.240Z,2766.00
2023-03-17T13:06:53.248Z,2696.00
2023-03-17T13:07:53.346Z,2632.00
2023-03-17T13:08:53.225Z,2575.00
2023-03-17T13:09:53.222Z,2553.00
2023-03-17T13:10:53.236Z,2560.00
2023-03-17T13:11:53.178Z,2584.00
2023-03-17T13:12:53.180Z,2600.00
2023-03-17T13:13:53.163Z,2639.00
2023-03-17T13:14:53.153Z,2670.00
2023-03-17T13:15:53.181Z,2661.00
2023-03-17T13:16:53.154Z,2619.00
2023-03-17T13:17:53.129Z,2561.00
2023-03-17T13:18:53.119Z,2522.00
2023-03-17T13:19:53.093Z,2502.00
2023-03-17T13:20:53.112Z,2537.00
2023-03-17T13:21:53.097Z,2605.00
2023-03-17T13:22:53.068Z,2672.00
2023-03-17T13:23:53.046Z,2675.00
2023-03-17T13:24:53.063Z,2631.00
2023-03-17T13:25:53.026Z,2585.00
2023-03-17T13:26:54.895Z,2512.00
2023-03-17T13:27:53.023Z,2476.00
2023-03-17T13:28:53.012Z,2494.00
2023-03-17T13:29:52.990Z,2487.00
2023-03-17T13:30:52.984Z,2454.00
2023-03-17T13:31:53.034Z,2424.00
2023-03-17T13:32:53.085Z,2435.00
2023-03-17T13:33:52.946Z,2388.00
2023-03-17T13:34:52.973Z,2462.00
2023-03-17T13:35:52.988Z,2475.00
2023-03-17T13:36:52.915Z,2506.00
2023-03-17T13:37:52.910Z,2535.00
2023-03-17T13:39:15.011Z,2538.00
2023-03-17T13:39:52.877Z,2512.00
2023-03-17T13:40:52.903Z,2446.00
2023-03-17T13:41:52.862Z,2456.00
2023-03-17T13:42:52.865Z,2458.00
2023-03-17T13:43:52.853Z,2428.00
2023-03-17T13:44:52.849Z,2448.00
2023-03-17T13:45:52.806Z,2499.00
2023-03-17T13:46:52.875Z,2496.00
2023-03-17T13:47:52.833Z,2472.00
2023-03-17T13:48:52.815Z,2459.00
2023-03-17T13:49:52.773Z,2465.00
2023-03-17T13:50:52.785Z,2395.00
2023-03-17T13:51:59.594Z,2414.00
2023-03-17T13:52:52.773Z,2435.00
2023-03-17T13:53:52.726Z,2475.00
2023-03-17T13:54:52.762Z,2540.00
2023-03-17T13:55:52.755Z,2652.00
2023-03-17T13:56:52.709Z,2700.00
2023-03-17T13:57:52.686Z,2726.00
2023-03-17T13:58:52.734Z,2694.00
2023-03-17T13:59:52.684Z,2656.00
2023-03-17T14:00:52.738Z,2618.00
2023-03-17T14:01:52.646Z,2563.00
2023-03-17T14:02:52.659Z,2502.00
2023-03-17T14:03:52.630Z,2434.00
2023-03-17T14:04:52.667Z,2381.00
2023-03-17T14:05:52.654Z,2332.00
2023-03-17T14:06:52.595Z,2289.00
2023-03-17T14:07:52.585Z,2283.00
2023-03-17T14:08:52.574Z,2301.00
2023-03-17T14:09:52.566Z,2287.00
2023-03-17T14:10:52.557Z,2282.00
2023-03-17T14:11:52.538Z,2252.00
2023-03-17T14:12:52.562Z,2273.00
2023-03-17T14:13:52.531Z,2295.00
2023-03-17T14:14:52.538Z,2321.00
2023-03-17T14:15:52.530Z,2338.00
2023-03-17T14:16:52.491Z,2394.00
2023-03-17T14:17:52.468Z,2458.00
2023-03-17T14:18:52.469Z,2535.00
2023-03-17T14:19:52.454Z,2671.00
2023-03-17T14:20:52.439Z,2817.00
2023-03-17T14:21:52.484Z,2840.00
2023-03-17T14:22:52.422Z,2950.00
2023-03-17T14:23:52.411Z,3010.00
2023-03-17T14:24:52.396Z,2973.00
2023-03-17T14:25:52.380Z,2898.00
2023-03-17T14:26:52.397Z,2858.00
2023-03-17T14:27:52.378Z,2745.00
2023-03-17T14:28:52.360Z,2637.00
2023-03-17T14:29:52.436Z,2558.00
2023-03-17T14:30:52.333Z,2498.00
2023-03-17T14:31:52.364Z,2434.00
2023-03-17T14:32:52.359Z,2389.00
2023-03-17T14:33:52.311Z,2352.00
2023-03-17T14:34:52.298Z,2332.00
2023-03-17T14:35:52.342Z,2304.00
2023-03-17T14:36:52.290Z,2281.00
2023-03-17T14:37:52.277Z,2254.00
2023-03-17T14:38:52.274Z,2247.00
2023-03-17T14:39:52.235Z,2239.00
2023-03-17T14:40:52.229Z,2221.00
2023-03-17T14:41:52.201Z,2200.00
2023-03-17T14:42:52.198Z,2160.00
2023-03-17T14:43:52.261Z,2105.00
2023-03-17T14:44:52.175Z,2058.00
2023-03-17T14:45:52.231Z,2043.00
2023-03-17T14:46:52.159Z,2028.00
2023-03-17T14:47:52.150Z,1973.00
2023-03-17T14:48:52.177Z,1897.00
2023-03-17T14:49:52.109Z,1822.00
2023-03-17T14:50:52.118Z,1765.00
2023-03-17T14:51:52.089Z,1708.00
2023-03-17T14:52:52.134Z,1670.00
2023-03-17T14:53:52.081Z,1661.00
2023-03-17T14:54:52.116Z,1673.00
2023-03-17T14:55:52.070Z,1672.00
2023-03-17T14:56:52.073Z,1663.00
2023-03-17T14:57:52.032Z,1616.00
2023-03-17T14:58:52.093Z,1562.00
2023-03-17T14:59:52.025Z,1508.00
2023-03-17T15:00:52.055Z,1472.00
2023-03-17T15:01:51.995Z,1443.00
2023-03-17T15:02:51.993Z,1443.00
2023-03-17T15:03:51.973Z,1457.00
2023-03-17T15:04:51.989Z,1466.00
2023-03-17T15:05:51.941Z,1473.00
2023-03-17T15:06:51.943Z,1487.00
2023-03-17T15:07:51.951Z,1498.00
2023-03-17T15:08:51.920Z,1506.00
2023-03-17T15:09:51.893Z,1495.00
2023-03-17T15:10:51.971Z,1467.00
2023-03-17T15:11:51.878Z,1439.00
2023-03-17T15:12:51.885Z,1424.00
2023-03-17T15:13:51.867Z,1401.00
2023-03-17T15:14:51.864Z,1375.00
2023-03-17T15:15:51.823Z,1350.00
2023-03-17T15:16:51.956Z,1333.00
2023-03-17T15:17:51.836Z,1299.00
2023-03-17T15:18:51.823Z,1256.00
2023-03-17T15:19:51.780Z,1238.00
2023-03-17T15:20:51.806Z,1212.00
2023-03-17T15:21:51.782Z,1199.00
2023-03-17T15:22:51.804Z,1179.00
2023-03-17T15:23:51.755Z,1164.00
2023-03-17T15:24:51.748Z,1170.00
2023-03-17T15:25:51.737Z,1189.00
2023-03-17T15:26:51.735Z,1220.00
2023-03-17T15:27:51.714Z,1247.00
2023-03-17T15:28:51.717Z,1271.00
2023-03-17T15:29:51.677Z,1305.00
2023-03-17T15:30:52.046Z,1311.00
2023-03-17T15:31:51.708Z,1291.00
2023-03-17T15:32:51.724Z,1263.00
2023-03-17T15:33:51.647Z,1235.00
2023-03-17T15:34:51.664Z,1227.00
2023-03-17T15:35:51.689Z,1210.00
2023-03-17T15:36:51.639Z,1188.00
2023-03-17T15:37:51.597Z,1161.00
2023-03-17T15:38:51.634Z,1138.00
2023-03-17T15:39:51.589Z,1126.00
2023-03-17T15:40:51.602Z,1127.00
2023-03-17T15:41:51.561Z,1106.00
2023-03-17T15:42:51.591Z,1086.00
2023-03-17T15:43:51.532Z,1076.00
2023-03-17T15:44:51.560Z,1091.00
2023-03-17T15:45:51.555Z,1111.00
2023-03-17T15:46:51.551Z,1130.00
2023-03-17T15:47:51.512Z,1137.00
2023-03-17T15:48:51.500Z,1135.00
2023-03-17T15:49:51.477Z,1122.00
2023-03-17T15:50:51.469Z,1104.00
2023-03-17T15:51:51.473Z,1072.00
2023-03-17T15:52:51.459Z,1065.00
2023-03-17T15:53:51.448Z,1056.00
2023-03-17T15:54:51.418Z,1050.00
2023-03-17T15:55:51.397Z,1043.00
2023-03-17T15:56:51.421Z,1038.00
2023-03-17T15:57:55.145Z,1018.00
2023-03-17T15:58:51.415Z,984.00
2023-03-17T15:59:51.343Z,946.00
2023-03-17T16:00:51.342Z,928.00
2023-03-17T16:01:51.343Z,923.00
2023-03-17T16:02:51.352Z,908.00
2023-03-17T16:03:51.358Z,874.00
2023-03-17T16:04:51.313Z,843.00
2023-03-17T16:05:51.278Z,829.00
2023-03-17T16:06:51.285Z,820.00
2023-03-17T16:07:51.262Z,801.00
2023-03-17T16:08:51.271Z,786.00
2023-03-17T16:09:51.266Z,779.00
2023-03-17T16:10:51.254Z,781.00
2023-03-17T16:11:51.215Z,788.00
2023-03-17T16:12:51.226Z,781.00
2023-03-17T16:13:51.203Z,770.00
2023-03-17T16:14:51.237Z,748.00
2023-03-17T16:15:51.231Z,733.00
2023-03-17T16:16:51.207Z,707.00
2023-03-17T16:17:51.150Z,687.00
2023-03-17T16:18:51.167Z,662.00
2023-03-17T16:19:51.135Z,635.00
2023-03-17T16:20:51.214Z,609.00
2023-03-17T16:21:51.107Z,588.00
2023-03-17T16:22:51.114Z,575.00
2023-03-17T16:23:51.093Z,564.00
2023-03-17T16:24:51.101Z,563.00
2023-03-17T16:25:51.723Z,544.00
2023-03-17T16:26:51.090Z,535.00
2023-03-17T16:27:51.058Z,536.00
2023-03-17T16:28:51.046Z,534.00
2023-03-17T16:29:51.025Z,521.00
2023-03-17T16:30:51.046Z,506.00
2023-03-17T16:31:51.076Z,484.00
2023-03-17T16:32:51.069Z,461.00
2023-03-17T16:33:50.990Z,441.00
2023-03-17T16:34:51.007Z,432.00
2023-03-17T16:35:51.000Z,417.00
2023-03-17T16:36:51.024Z,399.00
2023-03-17T16:37:50.946Z,384.00
2023-03-17T16:38:50.954Z,367.00
2023-03-17T16:39:50.925Z,350.00
2023-03-17T16:40:50.926Z,337.00
2023-03-17T16:41:50.892Z,329.00
2023-03-17T16:42:50.938Z,315.00
2023-03-17T16:43:50.887Z,304.00
2023-03-17T16:44:50.977Z,292.00
2023-03-17T16:45:50.862Z,296.00
2023-03-17T16:46:50.886Z,303.00
2023-03-17T16:47:50.841Z,306.00
2023-03-17T16:48:50.858Z,302.00
2023-03-17T16:49:50.809Z,290.00
2023-03-17T16:50:50.824Z,281.00
2023-03-17T16:51:50.912Z,270.00
2023-03-17T16:52:50.805Z,259.00
2023-03-17T16:53:50.772Z,247.00
2023-03-17T16:54:50.812Z,234.00